Time;durP1;ratioP1;P1;durP2;ratioP2;P2;SDS_P1;SDS_P2;PMS_P1;PMS_P2;Temp;Humidity;BMP_temperature;BMP_pressure;BME280_temperature;BME280_humidity;BME280_pressure;Samples;Min_cycle;Max_cycle;Signal;HPM_P1;HPM_P2
2022/07/07 00:01:59;;;;;;;2.92;1.70;;;16.40;50.80;;;;;;5053801;28;20321;-61
2022/07/07 00:04:25;;;;;;;4.25;2.05;;;16.40;50.90;;;;;;5050011;28;20037;-61
2022/07/07 00:06:50;;;;;;;2.63;1.80;;;16.40;51.00;;;;;;5074354;28;20092;-60
2022/07/07 00:09:16;;;;;;;7.32;1.80;;;16.40;51.20;;;;;;5052087;28;20034;-60
2022/07/07 00:11:42;;;;;;;3.85;1.60;;;16.40;51.30;;;;;;5058100;28;20092;-61
2022/07/07 00:14:08;;;;;;;1.70;1.60;;;16.30;51.20;;;;;;5049584;28;20057;-60
2022/07/07 00:16:35;;;;;;;2.28;1.70;;;16.30;51.10;;;;;;5067649;28;20435;-60
2022/07/07 00:19:01;;;;;;;3.15;1.58;;;16.30;51.00;;;;;;5055234;28;20056;-61
2022/07/07 00:21:28;;;;;;;5.85;2.10;;;16.30;50.90;;;;;;5048394;28;20029;-61
2022/07/07 00:23:54;;;;;;;3.30;1.50;;;16.30;51.30;;;;;;5065741;28;20116;-61
2022/07/07 00:26:20;;;;;;;5.47;1.70;;;16.30;51.60;;;;;;5067832;28;20025;-60
2022/07/07 00:28:46;;;;;;;2.88;1.70;;;16.30;51.70;;;;;;5053118;28;20056;-61
2022/07/07 00:31:12;;;;;;;6.55;1.50;;;16.20;51.80;;;;;;5067715;28;20021;-61
2022/07/07 00:33:38;;;;;;;5.47;1.90;;;16.20;52.30;;;;;;5052046;28;20082;-62
2022/07/07 00:36:04;;;;;;;2.70;1.92;;;16.20;51.80;;;;;;5062407;28;20025;-61
2022/07/07 00:38:30;;;;;;;3.10;1.85;;;16.10;52.00;;;;;;5047868;28;20059;-61
2022/07/07 00:40:56;;;;;;;2.00;1.80;;;16.10;52.10;;;;;;5064715;28;20056;-61
2022/07/07 00:43:22;;;;;;;3.20;1.77;;;16.00;52.10;;;;;;5062889;28;20033;-61
2022/07/07 00:45:51;;;;;;;6.80;1.85;;;16.00;52.30;;;;;;5066955;28;20033;-60
2022/07/07 00:48:20;;;;;;;3.38;2.22;;;16.00;52.90;;;;;;5046453;28;20109;-60
2022/07/07 00:50:47;;;;;;;6.45;1.75;;;15.90;52.70;;;;;;5067574;28;20040;-61
2022/07/07 00:53:15;;;;;;;2.85;2.08;;;15.90;52.50;;;;;;5046455;28;20038;-61
2022/07/07 00:55:41;;;;;;;3.35;1.73;;;15.90;52.80;;;;;;5066988;28;20040;-60
2022/07/07 00:58:07;;;;;;;4.05;1.70;;;15.90;53.00;;;;;;5047145;28;20042;-61
2022/07/07 01:00:34;;;;;;;3.22;1.98;;;15.90;53.20;;;;;;5067614;28;20423;-60
2022/07/07 01:03:01;;;;;;;2.13;1.92;;;15.90;53.40;;;;;;5047589;28;20492;-62
2022/07/07 01:05:28;;;;;;;2.47;1.75;;;15.90;53.40;;;;;;5046711;28;20049;-60
2022/07/07 01:07:54;;;;;;;2.97;1.92;;;15.90;53.20;;;;;;5066606;28;20032;-60
2022/07/07 01:10:20;;;;;;;2.20;1.90;;;15.90;53.20;;;;;;5046380;28;20097;-60
2022/07/07 01:12:46;;;;;;;2.55;1.90;;;15.90;53.40;;;;;;5063618;28;20033;-61
2022/07/07 01:15:13;;;;;;;2.10;1.90;;;15.90;53.60;;;;;;5046697;28;20038;-60
2022/07/07 01:17:40;;;;;;;4.72;1.98;;;15.90;53.70;;;;;;5066373;28;20037;-61
2022/07/07 01:20:08;;;;;;;1.83;1.60;;;15.80;53.80;;;;;;5044989;28;20148;-59
2022/07/07 01:22:36;;;;;;;3.10;1.70;;;15.80;54.00;;;;;;5066517;28;20040;-62
2022/07/07 01:25:03;;;;;;;2.00;1.60;;;15.80;54.10;;;;;;5054905;28;20041;-60
2022/07/07 01:27:28;;;;;;;2.80;1.60;;;15.80;54.00;;;;;;5047181;28;20381;-60
2022/07/07 01:29:56;;;;;;;3.70;1.80;;;15.70;54.10;;;;;;5050146;28;20032;-61
2022/07/07 01:32:23;;;;;;;2.72;1.70;;;15.80;54.50;;;;;;5066148;28;20036;-62
2022/07/07 01:34:49;;;;;;;6.25;1.73;;;15.70;54.40;;;;;;5045503;28;20021;-61
2022/07/07 01:37:16;;;;;;;2.90;1.70;;;15.70;54.40;;;;;;5066101;28;20250;-60
2022/07/07 01:39:42;;;;;;;3.95;1.80;;;15.70;54.50;;;;;;5044220;28;20043;-60
2022/07/07 01:42:09;;;;;;;4.90;1.73;;;15.70;54.60;;;;;;5066057;28;20025;-60
2022/07/07 01:44:38;;;;;;;4.45;1.70;;;15.70;54.60;;;;;;5045670;28;20112;-60
2022/07/07 01:47:05;;;;;;;2.50;1.90;;;15.70;54.70;;;;;;5066073;28;20033;-60
2022/07/07 01:49:31;;;;;;;3.50;1.92;;;15.60;54.60;;;;;;5045637;28;20028;-59
2022/07/07 01:51:58;;;;;;;3.88;1.88;;;15.70;54.70;;;;;;5065905;28;20033;-60
2022/07/07 01:54:25;;;;;;;4.40;1.80;;;15.60;54.70;;;;;;5045438;28;20060;-60
2022/07/07 01:56:50;;;;;;;2.03;1.75;;;15.70;54.70;;;;;;5064632;28;20021;-62
2022/07/07 01:59:16;;;;;;;6.50;2.05;;;15.70;54.80;;;;;;5045393;28;20052;-60
2022/07/07 02:01:42;;;;;;;2.53;1.80;;;15.70;55.00;;;;;;5058765;28;20033;-61
2022/07/07 02:04:08;;;;;;;3.25;1.80;;;15.70;55.00;;;;;;5058023;28;20025;-60
2022/07/07 02:06:33;;;;;;;2.47;1.70;;;15.70;55.10;;;;;;5041546;28;20033;-61
2022/07/07 02:08:59;;;;;;;4.35;1.70;;;15.70;55.00;;;;;;5063510;28;20033;-60
2022/07/07 02:11:27;;;;;;;2.28;1.70;;;15.70;55.00;;;;;;5058986;28;20018;-62
2022/07/07 02:13:52;;;;;;;1.92;1.42;;;15.70;55.20;;;;;;5043346;28;20080;-59
2022/07/07 02:16:23;;;;;;;3.17;1.70;;;15.70;55.10;;;;;;5063258;28;20033;-61
2022/07/07 02:18:53;;;;;;;2.08;1.60;;;15.70;55.60;;;;;;5045864;28;20128;-61
2022/07/07 02:21:20;;;;;;;1.67;1.58;;;15.70;55.50;;;;;;5045037;28;20040;-61
2022/07/07 02:23:47;;;;;;;2.63;1.60;;;15.70;55.30;;;;;;5063755;28;20021;-61
2022/07/07 02:26:13;;;;;;;1.77;1.58;;;15.70;55.40;;;;;;5043515;28;20022;-60
2022/07/07 02:28:40;;;;;;;3.15;1.33;;;15.70;55.60;;;;;;5054420;28;20172;-61
2022/07/07 02:31:07;;;;;;;1.92;1.45;;;15.60;55.70;;;;;;5046190;28;20029;-60
2022/07/07 02:33:33;;;;;;;15.27;1.90;;;15.60;55.60;;;;;;5065259;28;20051;-61
2022/07/07 02:35:58;;;;;;;3.42;1.67;;;15.60;55.60;;;;;;5044851;28;20025;-60
2022/07/07 02:38:25;;;;;;;2.15;1.77;;;15.60;55.90;;;;;;5045601;28;20048;-60
2022/07/07 02:40:51;;;;;;;3.30;1.70;;;15.60;56.00;;;;;;5047832;28;20033;-59
2022/07/07 02:43:17;;;;;;;8.77;2.00;;;15.60;56.00;;;;;;5064874;28;20021;-59
2022/07/07 02:45:44;;;;;;;5.95;2.03;;;15.60;56.00;;;;;;5044898;28;20083;-61
2022/07/07 02:48:11;;;;;;;1.98;1.83;;;15.60;56.00;;;;;;5049781;28;20033;-60
2022/07/07 02:50:38;;;;;;;3.50;1.67;;;15.60;56.20;;;;;;5049538;28;20089;-60
2022/07/07 02:53:05;;;;;;;4.75;2.00;;;15.70;56.30;;;;;;5063569;28;20029;-60
2022/07/07 02:55:31;;;;;;;2.47;1.60;;;15.70;56.30;;;;;;5044698;28;20032;-60
2022/07/07 02:57:58;;;;;;;2.67;1.80;;;15.70;56.30;;;;;;5064492;28;20041;-60
2022/07/07 03:00:24;;;;;;;6.40;1.67;;;15.70;56.50;;;;;;5044587;28;20044;-60
2022/07/07 03:02:50;;;;;;;2.50;1.63;;;15.70;56.40;;;;;;5064894;28;20036;-61
2022/07/07 03:05:16;;;;;;;1.63;1.50;;;15.70;56.40;;;;;;5044437;28;20033;-62
2022/07/07 03:07:41;;;;;;;3.58;1.85;;;15.70;56.60;;;;;;5064697;28;20040;-60
2022/07/07 03:10:07;;;;;;;3.13;1.77;;;15.70;56.60;;;;;;5044778;28;20064;-61
2022/07/07 03:12:33;;;;;;;4.53;1.80;;;15.70;56.60;;;;;;5064339;28;20035;-60
2022/07/07 03:14:59;;;;;;;7.85;1.98;;;15.70;56.70;;;;;;5062746;28;20025;-60
2022/07/07 03:17:25;;;;;;;7.53;1.90;;;15.70;56.70;;;;;;5045665;28;20380;-60
2022/07/07 03:19:51;;;;;;;3.50;2.05;;;15.70;56.70;;;;;;5055883;28;20038;-60
2022/07/07 03:22:17;;;;;;;3.17;1.90;;;15.70;56.70;;;;;;5060575;28;20483;-60
2022/07/07 03:24:42;;;;;;;3.83;1.55;;;15.70;56.80;;;;;;5054190;28;20131;-60
2022/07/07 03:27:08;;;;;;;3.60;1.75;;;15.80;56.90;;;;;;5064377;28;20029;-60
2022/07/07 03:29:34;;;;;;;2.67;1.90;;;15.80;56.90;;;;;;5044405;28;20061;-60
2022/07/07 03:32:00;;;;;;;5.53;1.85;;;15.80;56.80;;;;;;5056522;28;20053;-60
2022/07/07 03:34:26;;;;;;;3.78;2.10;;;15.80;56.80;;;;;;5051031;28;20025;-60
2022/07/07 03:36:51;;;;;;;7.15;2.38;;;15.80;56.40;;;;;;5065304;28;20034;-60
2022/07/07 03:39:17;;;;;;;3.40;1.83;;;15.80;56.20;;;;;;5051005;28;20045;-61
2022/07/07 03:41:43;;;;;;;2.92;1.73;;;15.80;55.90;;;;;;5065093;28;20176;-60
2022/07/07 03:44:08;;;;;;;3.28;1.55;;;15.90;55.50;;;;;;5049248;28;20029;-61
2022/07/07 03:46:34;;;;;;;4.28;2.00;;;15.90;55.40;;;;;;5068834;28;20029;-62
2022/07/07 03:49:00;;;;;;;2.72;1.85;;;15.90;55.30;;;;;;5048175;28;20033;-61
2022/07/07 03:51:25;;;;;;;2.47;1.63;;;16.00;55.10;;;;;;5068095;28;20036;-60
2022/07/07 03:53:51;;;;;;;2.95;1.80;;;16.00;54.90;;;;;;5049646;28;20022;-60
2022/07/07 03:56:17;;;;;;;4.93;1.95;;;16.10;54.70;;;;;;5046021;28;20025;-61
2022/07/07 03:58:43;;;;;;;7.20;1.90;;;16.10;54.60;;;;;;5068180;28;20491;-60
2022/07/07 04:01:08;;;;;;;2.60;1.90;;;16.20;54.40;;;;;;5048074;28;20053;-60
2022/07/07 04:03:34;;;;;;;6.80;1.88;;;16.20;54.30;;;;;;5052673;28;20037;-60
2022/07/07 04:06:00;;;;;;;6.72;1.70;;;16.20;54.10;;;;;;5044509;28;20109;-61
2022/07/07 04:08:25;;;;;;;3.42;1.85;;;16.20;54.70;;;;;;5071671;28;20063;-60
2022/07/07 04:10:51;;;;;;;3.08;2.00;;;16.30;55.20;;;;;;5060624;28;20119;-60
2022/07/07 04:13:17;;;;;;;2.40;1.92;;;16.30;55.60;;;;;;5042547;28;20029;-60
2022/07/07 04:15:43;;;;;;;3.20;1.90;;;16.40;55.80;;;;;;5058913;28;20040;-60
2022/07/07 04:18:09;;;;;;;2.95;2.00;;;16.40;56.00;;;;;;5067334;28;20048;-60
2022/07/07 04:20:34;;;;;;;3.78;1.88;;;16.40;56.20;;;;;;5047764;28;20029;-59
2022/07/07 04:23:00;;;;;;;7.80;1.90;;;16.40;56.20;;;;;;5061098;28;20057;-60
2022/07/07 04:25:26;;;;;;;2.33;1.75;;;16.50;56.30;;;;;;5059971;28;20048;-61
2022/07/07 04:27:52;;;;;;;3.67;1.90;;;16.40;56.20;;;;;;5063290;28;20050;-60
2022/07/07 04:30:17;;;;;;;10.57;2.10;;;16.50;56.10;;;;;;5047078;28;20384;-60
2022/07/07 04:32:43;;;;;;;2.17;1.80;;;16.50;56.10;;;;;;5067282;28;20033;-60
2022/07/07 04:35:09;;;;;;;3.60;1.63;;;16.50;56.00;;;;;;5049680;28;20025;-61
2022/07/07 04:37:35;;;;;;;3.35;1.80;;;16.60;55.90;;;;;;5067966;28;20055;-60
2022/07/07 04:40:03;;;;;;;2.80;1.90;;;16.60;56.10;;;;;;5047853;28;20033;-60
2022/07/07 04:42:29;;;;;;;5.75;1.95;;;16.60;56.10;;;;;;5067675;28;20033;-59
2022/07/07 04:44:55;;;;;;;4.43;1.90;;;16.60;56.10;;;;;;5047173;28;20032;-61
2022/07/07 04:47:20;;;;;;;3.03;2.20;;;16.60;56.00;;;;;;5067203;28;20029;-62
2022/07/07 04:49:46;;;;;;;4.65;1.52;;;16.70;55.90;;;;;;5047236;28;20030;-61
2022/07/07 04:52:11;;;;;;;6.80;1.80;;;16.70;55.30;;;;;;5046651;28;20040;-61
2022/07/07 04:54:37;;;;;;;6.80;1.58;;;16.70;54.90;;;;;;5066842;28;20088;-60
2022/07/07 04:57:03;;;;;;;3.28;1.70;;;16.80;54.80;;;;;;5045673;28;20375;-61
2022/07/07 04:59:29;;;;;;;3.38;1.58;;;16.80;54.60;;;;;;5050668;28;20191;-60
2022/07/07 05:01:55;;;;;;;4.35;2.03;;;16.80;54.60;;;;;;5032096;28;20030;-60
2022/07/07 05:04:21;;;;;;;3.08;1.92;;;16.80;54.70;;;;;;5066179;28;20067;-60
2022/07/07 05:06:46;;;;;;;7.45;1.98;;;16.80;55.00;;;;;;5046694;28;20029;-61
2022/07/07 05:09:12;;;;;;;3.60;1.90;;;16.90;55.30;;;;;;5066595;28;20032;-60
2022/07/07 05:11:38;;;;;;;2.45;1.65;;;16.90;55.10;;;;;;5046929;28;20033;-60
2022/07/07 05:14:03;;;;;;;4.13;1.90;;;17.00;55.10;;;;;;5034916;28;20038;-60
2022/07/07 05:16:30;;;;;;;5.13;1.60;;;17.00;54.70;;;;;;5052122;28;20029;-60
2022/07/07 05:18:55;;;;;;;3.47;1.67;;;17.10;54.50;;;;;;5066471;28;20059;-61
2022/07/07 05:21:21;;;;;;;2.78;1.45;;;17.10;54.30;;;;;;5046625;28;20029;-60
2022/07/07 05:23:47;;;;;;;4.82;1.80;;;17.20;54.20;;;;;;5064574;28;20061;-60
2022/07/07 05:26:12;;;;;;;1.85;1.50;;;17.20;54.20;;;;;;5045891;28;20029;-61
2022/07/07 05:28:41;;;;;;;3.97;1.70;;;17.20;54.10;;;;;;5055639;28;20400;-60
2022/07/07 05:31:12;;;;;;;1.58;1.25;;;17.30;53.90;;;;;;5065103;28;20047;-61
2022/07/07 05:33:38;;;;;;;3.65;1.48;;;17.30;53.90;;;;;;5039945;28;20411;-61
2022/07/07 05:36:05;;;;;;;2.80;1.33;;;17.40;53.80;;;;;;5055538;28;20065;-61
2022/07/07 05:38:32;;;;;;;1.88;1.30;;;17.40;53.90;;;;;;5065839;28;20056;-60
2022/07/07 05:40:57;;;;;;;2.25;1.67;;;17.50;54.20;;;;;;5045977;28;20029;-62
2022/07/07 05:43:23;;;;;;;2.22;1.50;;;17.50;54.30;;;;;;5065906;28;20483;-61
2022/07/07 05:45:49;;;;;;;2.53;1.55;;;17.60;54.30;;;;;;5053181;28;20029;-61
2022/07/07 05:48:15;;;;;;;2.58;1.50;;;17.60;54.30;;;;;;5045762;28;20033;-60
2022/07/07 05:50:40;;;;;;;3.25;1.70;;;17.70;54.60;;;;;;5064728;28;20084;-59
2022/07/07 05:53:06;;;;;;;6.88;1.77;;;17.70;54.50;;;;;;5066378;28;20033;-60
2022/07/07 05:55:32;;;;;;;4.65;1.80;;;17.80;54.50;;;;;;5050901;28;20013;-61
2022/07/07 05:57:58;;;;;;;4.35;1.60;;;17.90;54.70;;;;;;5066389;28;20025;-62
2022/07/07 06:00:25;;;;;;;2.58;1.45;;;17.90;54.50;;;;;;5045596;28;20033;-62
2022/07/07 06:02:52;;;;;;;3.85;1.73;;;18.00;54.50;;;;;;5066031;28;20056;-60
2022/07/07 06:05:18;;;;;;;3.17;1.55;;;18.10;54.60;;;;;;5047313;28;20017;-61
2022/07/07 06:07:43;;;;;;;3.72;1.55;;;18.20;54.50;;;;;;5044111;28;20071;-60
2022/07/07 06:10:11;;;;;;;6.60;1.63;;;18.30;54.80;;;;;;5065261;28;20025;-60
2022/07/07 06:12:37;;;;;;;4.68;1.75;;;18.40;53.60;;;;;;5044347;28;20033;-60
2022/07/07 06:15:04;;;;;;;2.70;1.40;;;18.50;53.40;;;;;;5064895;28;20063;-61
2022/07/07 06:17:30;;;;;;;3.70;1.38;;;18.60;53.20;;;;;;5045116;28;20079;-60
2022/07/07 06:19:57;;;;;;;3.65;1.80;;;18.60;53.20;;;;;;5064120;28;20033;-61
2022/07/07 06:22:23;;;;;;;3.75;1.50;;;18.70;53.10;;;;;;5032673;28;20030;-59
2022/07/07 06:24:49;;;;;;;4.63;1.70;;;18.80;53.00;;;;;;4968986;28;20033;-60
2022/07/07 06:27:15;;;;;;;3.50;1.50;;;18.80;52.70;;;;;;5058695;28;20041;-60
2022/07/07 06:29:41;;;;;;;4.60;1.58;;;18.90;52.80;;;;;;5073246;28;20049;-60
2022/07/07 06:32:07;;;;;;;3.50;1.35;;;19.00;52.70;;;;;;5046644;28;20034;-60
2022/07/07 06:34:32;;;;;;;2.88;1.40;;;19.10;52.60;;;;;;5054781;28;20037;-60
2022/07/07 06:36:59;;;;;;;2.40;1.42;;;19.10;52.90;;;;;;5054698;28;20030;-61
2022/07/07 06:39:25;;;;;;;3.25;1.38;;;19.20;53.00;;;;;;5065260;28;20072;-61
2022/07/07 06:41:51;;;;;;;5.53;1.40;;;19.30;53.20;;;;;;5053270;28;20028;-61
2022/07/07 06:44:17;;;;;;;3.10;1.40;;;19.40;53.10;;;;;;5046418;28;20029;-60
2022/07/07 06:46:43;;;;;;;4.28;1.38;;;19.50;52.90;;;;;;5063878;28;20039;-60
2022/07/07 06:49:09;;;;;;;5.95;1.30;;;19.70;52.50;;;;;;5065969;28;20028;-60
2022/07/07 06:51:34;;;;;;;2.72;1.17;;;19.80;52.30;;;;;;5051199;28;20056;-61
2022/07/07 06:54:00;;;;;;;5.13;1.17;;;19.90;52.40;;;;;;5065994;28;20028;-60
2022/07/07 06:56:26;;;;;;;2.58;1.10;;;20.00;52.00;;;;;;5045299;28;20083;-60
2022/07/07 06:58:52;;;;;;;1.95;1.02;;;20.10;51.40;;;;;;5064951;28;20110;-62
2022/07/07 07:01:17;;;;;;;2.47;1.50;;;20.20;51.00;;;;;;5035261;28;20034;-58
2022/07/07 07:03:43;;;;;;;2.88;1.08;;;20.20;50.70;;;;;;5038460;28;20030;-61
2022/07/07 07:06:10;;;;;;;2.15;1.00;;;20.20;50.70;;;;;;5061032;28;20033;-60
2022/07/07 07:08:35;;;;;;;4.78;1.00;;;20.30;51.00;;;;;;5055327;28;20423;-60
2022/07/07 07:11:02;;;;;;;4.65;1.02;;;20.30;51.20;;;;;;5055004;28;20037;-59
2022/07/07 07:13:29;;;;;;;1.70;0.70;;;20.40;51.30;;;;;;5054347;28;20121;-60
2022/07/07 07:15:54;;;;;;;6.75;1.05;;;20.50;51.30;;;;;;5063051;28;20166;-60
2022/07/07 07:18:20;;;;;;;3.67;1.00;;;20.60;50.90;;;;;;5049400;28;20488;-60
2022/07/07 07:20:46;;;;;;;1.80;1.00;;;20.70;51.10;;;;;;5057336;28;20361;-60
2022/07/07 07:23:11;;;;;;;7.18;0.85;;;20.90;50.80;;;;;;5053798;28;20061;-61
2022/07/07 07:25:37;;;;;;;1.95;0.80;;;21.10;50.70;;;;;;5059283;28;20033;-60
2022/07/07 07:28:03;;;;;;;3.55;1.00;;;21.30;50.10;;;;;;5057336;28;20045;-61
2022/07/07 07:30:28;;;;;;;2.67;0.80;;;21.40;49.30;;;;;;5064369;28;20030;-60
2022/07/07 07:32:54;;;;;;;9.68;1.75;;;21.50;49.00;;;;;;5049571;28;20029;-61
2022/07/07 07:35:20;;;;;;;4.25;1.02;;;21.60;48.70;;;;;;5058892;28;20029;-60
2022/07/07 07:37:46;;;;;;;1.10;0.60;;;21.70;48.10;;;;;;5065901;28;20049;-61
2022/07/07 07:40:12;;;;;;;4.10;0.88;;;21.80;47.20;;;;;;5067709;28;20438;-60
2022/07/07 07:42:38;;;;;;;2.58;0.90;;;21.80;46.40;;;;;;5067813;28;20136;-61
2022/07/07 07:45:11;;;;;;;3.33;1.00;;;21.80;46.30;;;;;;5058303;28;20083;-61
2022/07/07 07:47:45;;;;;;;4.43;0.77;;;21.70;46.20;;;;;;5047725;28;20030;-61
2022/07/07 07:50:12;;;;;;;;;;;21.70;46.20;;;;;;5055272;28;20116;-61
2022/07/07 07:52:39;;;;;;;3.20;0.95;;;21.70;47.00;;;;;;5056592;28;19972;-61
2022/07/07 07:55:10;;;;;;;2.55;0.80;;;21.70;46.20;;;;;;5052427;28;20041;-61
2022/07/07 07:57:36;;;;;;;2.00;1.00;;;21.70;46.60;;;;;;5047595;28;20044;-61
2022/07/07 08:00:04;;;;;;;4.93;1.27;;;21.80;46.50;;;;;;5066747;28;20033;-61
2022/07/07 08:02:30;;;;;;;4.20;0.80;;;21.80;45.60;;;;;;5047714;28;20030;-60
2022/07/07 08:04:56;;;;;;;1.42;0.90;;;21.80;45.50;;;;;;5068295;28;20032;-61
2022/07/07 08:07:21;;;;;;;2.05;0.80;;;21.80;45.60;;;;;;5047810;28;20030;-60
2022/07/07 08:09:47;;;;;;;2.92;0.90;;;21.70;45.60;;;;;;5067731;28;20089;-60
2022/07/07 08:12:13;;;;;;;2.35;0.80;;;21.70;45.40;;;;;;5047875;28;20387;-61
2022/07/07 08:14:38;;;;;;;3.58;1.10;;;21.70;45.90;;;;;;5032840;28;20373;-61
2022/07/07 08:17:04;;;;;;;7.32;0.95;;;21.60;45.80;;;;;;5050564;28;20029;-62
2022/07/07 08:19:30;;;;;;;5.63;1.00;;;21.60;45.90;;;;;;5065949;28;20041;-62
2022/07/07 08:21:56;;;;;;;2.40;0.90;;;21.60;46.20;;;;;;5052120;28;20116;-60
2022/07/07 08:24:22;;;;;;;4.22;0.93;;;21.70;46.40;;;;;;4976802;28;20644;-61
2022/07/07 08:26:47;;;;;;;3.78;0.90;;;21.70;46.20;;;;;;5038476;28;20037;-61
2022/07/07 08:29:13;;;;;;;4.75;1.17;;;21.80;46.30;;;;;;5061606;28;20076;-62
2022/07/07 08:31:39;;;;;;;4.28;0.88;;;21.80;45.90;;;;;;5050809;28;20120;-60
2022/07/07 08:34:05;;;;;;;1.90;1.10;;;21.80;45.90;;;;;;5062062;28;20029;-60
2022/07/07 08:36:32;;;;;;;1.98;1.05;;;21.90;46.00;;;;;;5066577;28;20056;-60
2022/07/07 08:38:58;;;;;;;5.03;1.08;;;21.90;46.20;;;;;;5068057;28;20112;-60
2022/07/07 08:41:24;;;;;;;4.03;1.15;;;22.00;46.40;;;;;;5048175;28;20147;-61
2022/07/07 08:43:50;;;;;;;1.70;0.90;;;22.10;46.20;;;;;;5067668;28;20100;-61
2022/07/07 08:46:16;;;;;;;3.22;1.10;;;22.20;46.10;;;;;;5047693;28;20393;-61
2022/07/07 08:48:43;;;;;;;3.90;1.33;;;22.20;46.00;;;;;;5067595;28;20029;-60
2022/07/07 08:51:09;;;;;;;3.83;1.20;;;22.20;46.00;;;;;;5055591;28;20056;-61
2022/07/07 08:53:37;;;;;;;5.28;1.20;;;22.20;46.00;;;;;;5052203;28;20033;-60
2022/07/07 08:56:07;;;;;;;2.60;1.23;;;22.20;46.10;;;;;;5067737;28;20044;-61
2022/07/07 08:58:35;;;;;;;5.78;1.67;;;22.20;46.50;;;;;;5045453;28;20083;-61
2022/07/07 09:01:06;;;;;;;6.18;1.70;;;22.20;46.60;;;;;;5067324;28;20025;-60
2022/07/07 09:03:33;;;;;;;2.80;1.13;;;22.30;46.20;;;;;;5045233;28;20075;-60
2022/07/07 09:05:59;;;;;;;5.75;1.50;;;22.30;46.40;;;;;;5066855;28;20040;-60
2022/07/07 09:08:27;;;;;;;2.80;1.42;;;22.20;46.20;;;;;;5046486;28;20029;-61
2022/07/07 09:10:53;;;;;;;7.82;1.70;;;22.20;46.20;;;;;;5067115;28;20029;-60
2022/07/07 09:13:31;;;;;;;7.00;1.42;;;22.10;46.40;;;;;;5040316;28;20384;-59
2022/07/07 09:16:01;;;;;;;2.40;1.70;;;22.00;46.40;;;;;;5027765;28;20025;-62
2022/07/07 09:18:37;;;;;;;3.33;1.52;;;22.00;46.60;;;;;;5028017;28;20211;-60
2022/07/07 09:21:06;;;;;;;6.20;1.77;;;21.90;46.70;;;;;;5028002;28;20026;-60
2022/07/07 09:23:32;;;;;;;5.50;1.98;;;21.90;46.90;;;;;;5046512;28;20156;-61
2022/07/07 09:26:00;;;;;;;7.60;2.10;;;21.80;47.20;;;;;;5060799;28;20107;-61
2022/07/07 09:28:26;;;;;;;4.70;2.30;;;21.80;47.00;;;;;;5052985;28;20049;-60
2022/07/07 09:30:53;;;;;;;6.82;2.10;;;21.80;47.40;;;;;;5067302;28;20518;-61
2022/07/07 09:33:21;;;;;;;4.20;1.50;;;21.80;47.20;;;;;;5046342;28;20431;-60
2022/07/07 09:38:34;;;;;;;6.60;1.95;;;21.90;47.30;;;;;;5044576;28;20067;-60
2022/07/07 09:41:08;;;;;;;7.40;1.70;;;21.90;47.20;;;;;;5066557;28;20404;-60
2022/07/07 09:43:43;;;;;;;7.15;1.73;;;22.00;47.40;;;;;;5045925;28;20026;-60
2022/07/07 09:46:25;;;;;;;4.82;1.38;;;22.00;47.60;;;;;;5026836;28;20108;-60
2022/07/07 09:48:53;;;;;;;3.70;1.50;;;22.10;47.40;;;;;;5026771;28;20116;-61
2022/07/07 09:51:22;;;;;;;4.57;1.55;;;22.20;47.20;;;;;;5057463;28;20021;-60
2022/07/07 09:54:07;;;;;;;3.20;1.20;;;22.30;47.50;;;;;;5053923;28;20040;-60
2022/07/07 09:56:37;;;;;;;7.78;2.05;;;22.30;47.30;;;;;;5063135;28;20024;-60
2022/07/07 09:59:06;;;;;;;5.15;1.40;;;22.30;46.80;;;;;;5065807;28;20036;-60
2022/07/07 10:01:34;;;;;;;6.38;1.65;;;22.30;46.60;;;;;;5045517;28;20040;-60
2022/07/07 10:04:03;;;;;;;3.25;1.27;;;22.30;46.80;;;;;;5065953;28;20101;-60
2022/07/07 10:06:30;;;;;;;7.13;1.48;;;22.20;47.00;;;;;;5046675;28;20056;-60
2022/07/07 10:08:59;;;;;;;2.53;1.38;;;22.20;47.40;;;;;;5066401;28;20043;-61
2022/07/07 10:11:36;;;;;;;3.90;1.33;;;22.20;47.40;;;;;;5044849;28;20033;-61
2022/07/07 10:14:27;;;;;;;2.45;1.25;;;22.20;47.40;;;;;;5041339;28;20026;-60
2022/07/07 10:16:54;;;;;;;2.85;1.50;;;22.20;47.30;;;;;;5030610;28;20033;-60
2022/07/07 10:19:22;;;;;;;4.70;1.52;;;22.20;47.20;;;;;;5065493;28;20037;-60
2022/07/07 10:21:50;;;;;;;2.38;1.50;;;22.20;48.20;;;;;;5048201;28;20056;-61
2022/07/07 10:24:17;;;;;;;3.65;1.50;;;22.20;48.10;;;;;;5060053;28;20018;-61
2022/07/07 10:26:49;;;;;;;4.63;1.60;;;22.20;47.40;;;;;;5044734;28;20029;-61
2022/07/07 10:29:15;;;;;;;5.03;1.10;;;22.20;47.50;;;;;;5039612;28;20053;-59
2022/07/07 10:31:41;;;;;;;2.17;1.40;;;22.20;47.50;;;;;;5065047;28;20112;-61
2022/07/07 10:34:14;;;;;;;4.45;1.42;;;22.20;47.40;;;;;;5044901;28;20041;-61
2022/07/07 10:36:46;;;;;;;3.63;1.40;;;22.20;48.10;;;;;;5026143;28;20034;-60
2022/07/07 10:39:13;;;;;;;2.17;1.50;;;22.30;47.60;;;;;;5046643;28;20029;-61
2022/07/07 10:41:40;;;;;;;9.50;1.65;;;22.30;47.80;;;;;;5045653;28;20025;-60
2022/07/07 10:44:09;;;;;;;3.38;1.50;;;22.30;47.80;;;;;;5048274;28;20052;-61
2022/07/07 10:46:37;;;;;;;4.00;1.23;;;22.40;47.70;;;;;;5064317;28;20056;-60
2022/07/07 10:49:11;;;;;;;3.55;1.40;;;22.40;47.50;;;;;;5044751;28;20372;-61
2022/07/07 10:52:11;;;;;;;4.30;1.52;;;22.40;47.50;;;;;;5065267;28;20029;-59
2022/07/07 10:54:40;;;;;;;3.00;1.30;;;22.40;47.60;;;;;;5063045;28;20076;-61
2022/07/07 10:57:05;;;;;;;4.35;1.50;;;22.40;47.40;;;;;;5048955;28;20097;-61
2022/07/07 10:59:58;;;;;;;2.97;1.40;;;22.30;47.50;;;;;;5042525;28;20051;-61
2022/07/07 11:02:30;;;;;;;4.65;1.30;;;22.30;47.70;;;;;;5025596;28;20520;-61
2022/07/07 11:04:57;;;;;;;4.03;1.45;;;22.20;47.90;;;;;;5043486;28;20088;-61
2022/07/07 11:07:28;;;;;;;4.05;1.27;;;22.10;48.30;;;;;;5043292;28;20033;-61
2022/07/07 11:10:11;;;;;;;2.88;1.25;;;22.00;49.20;;;;;;5023346;28;20030;-60
2022/07/07 11:12:42;;;;;;;3.17;1.50;;;21.90;50.10;;;;;;5052291;28;20049;-60
2022/07/07 11:15:30;;;;;;;2.20;1.35;;;21.80;50.70;;;;;;5023432;28;20141;-61
2022/07/07 11:17:56;;;;;;;2.55;1.20;;;21.60;51.90;;;;;;5034371;28;20045;-61
2022/07/07 11:20:24;;;;;;;2.90;1.40;;;21.60;51.60;;;;;;5044893;28;20059;-60
2022/07/07 11:22:53;;;;;;;6.75;1.58;;;21.50;52.00;;;;;;5049526;28;20053;-60
2022/07/07 11:25:21;;;;;;;2.80;1.38;;;21.40;52.30;;;;;;5044274;28;20101;-60
2022/07/07 11:27:49;;;;;;;3.38;1.50;;;21.40;52.90;;;;;;5041663;28;20037;-60
2022/07/07 11:30:16;;;;;;;5.00;1.65;;;21.30;52.90;;;;;;5043473;28;20033;-61
2022/07/07 11:32:43;;;;;;;3.35;1.70;;;21.30;53.00;;;;;;5059135;28;20025;-61
2022/07/07 11:35:13;;;;;;;6.65;1.40;;;21.20;53.10;;;;;;5064599;28;20059;-61
2022/07/07 11:37:45;;;;;;;6.55;1.70;;;21.20;53.80;;;;;;5047763;28;20080;-61
2022/07/07 11:40:14;;;;;;;1.95;1.20;;;21.20;54.00;;;;;;5065144;28;20063;-61
2022/07/07 11:42:43;;;;;;;4.72;1.80;;;21.30;54.40;;;;;;5048122;28;20029;-61
2022/07/07 11:45:28;;;;;;;7.68;1.58;;;21.30;54.50;;;;;;5065216;28;20052;-61
2022/07/07 11:48:04;;;;;;;3.33;1.52;;;21.40;55.40;;;;;;5030049;28;20384;-60
2022/07/07 11:50:33;;;;;;;3.60;1.27;;;21.50;55.00;;;;;;5064448;28;20036;-61
2022/07/07 11:53:01;;;;;;;1.65;1.30;;;21.70;54.70;;;;;;5044074;28;20030;-61
2022/07/07 11:55:28;;;;;;;5.20;1.30;;;21.80;54.10;;;;;;5064455;28;20041;-61
2022/07/07 11:57:59;;;;;;;3.45;1.17;;;22.00;53.60;;;;;;5051000;28;20029;-61
2022/07/07 12:00:38;;;;;;;5.00;1.02;;;22.00;53.60;;;;;;5071979;28;20029;-60
2022/07/07 12:03:05;;;;;;;3.25;0.88;;;22.10;53.30;;;;;;5048747;28;20021;-61
2022/07/07 12:05:36;;;;;;;2.05;1.10;;;22.20;53.10;;;;;;5068819;28;20530;-60
2022/07/07 12:08:08;;;;;;;1.67;0.95;;;22.30;53.50;;;;;;5047452;28;20116;-61
2022/07/07 12:10:42;;;;;;;4.22;1.10;;;22.40;53.30;;;;;;5062255;28;20037;-60
2022/07/07 12:13:13;;;;;;;2.17;1.00;;;22.60;52.80;;;;;;5036328;28;20056;-61
2022/07/07 12:15:46;;;;;;;2.58;1.15;;;22.80;52.50;;;;;;5028678;28;20034;-61
2022/07/07 12:18:11;;;;;;;2.35;1.30;;;22.90;51.80;;;;;;5036140;28;20458;-61
2022/07/07 12:20:39;;;;;;;1.90;1.00;;;23.00;51.50;;;;;;5068349;28;20060;-61
2022/07/07 12:23:16;;;;;;;1.77;1.15;;;23.10;51.40;;;;;;5054486;28;20025;-60
2022/07/07 12:25:41;;;;;;;3.08;1.38;;;23.20;51.60;;;;;;5050711;28;20503;-61
2022/07/07 12:28:09;;;;;;;2.00;1.17;;;23.20;50.90;;;;;;5061460;28;20045;-60
2022/07/07 12:30:49;;;;;;;2.03;1.25;;;23.20;50.60;;;;;;5046719;28;20037;-61
2022/07/07 12:33:32;;;;;;;2.38;1.20;;;23.20;50.60;;;;;;5028246;28;20026;-61
2022/07/07 12:36:18;;;;;;;2.45;1.33;;;23.20;50.70;;;;;;5067503;28;20042;-60
2022/07/07 12:38:57;;;;;;;3.25;1.27;;;23.10;50.30;;;;;;5037480;28;20041;-60
2022/07/07 12:41:36;;;;;;;2.80;1.25;;;23.10;50.50;;;;;;5069352;28;20084;-60
2022/07/07 12:44:25;;;;;;;2.05;1.17;;;23.00;50.50;;;;;;5035291;28;20029;-60
2022/07/07 12:47:00;;;;;;;2.63;1.30;;;22.90;50.80;;;;;;5027956;28;20076;-60
2022/07/07 12:49:26;;;;;;;4.03;1.08;;;22.80;50.80;;;;;;5046840;28;20033;-60
2022/07/07 12:51:55;;;;;;;1.73;1.38;;;22.70;51.00;;;;;;5067104;28;20119;-60
2022/07/07 12:54:23;;;;;;;2.33;1.40;;;22.60;51.20;;;;;;5046986;28;20018;-59